createdAt,value
2023-03-15T00:03:13.722Z,31.19
2023-03-15T00:07:13.834Z,31.19
2023-03-15T00:11:14.010Z,31.18
2023-03-15T00:15:14.189Z,31.12
2023-03-15T00:19:14.374Z,31.15
2023-03-15T00:23:14.510Z,31.16
2023-03-15T00:27:14.666Z,31.15
2023-03-15T00:31:14.881Z,31.14
2023-03-15T00:35:14.995Z,31.13
2023-03-15T00:39:15.181Z,31.13
2023-03-15T00:43:15.304Z,31.12
2023-03-15T00:47:15.444Z,31.13
2023-03-15T00:51:15.585Z,31.12
2023-03-15T00:55:15.747Z,31.11
2023-03-15T00:59:15.893Z,31.14
2023-03-15T01:03:16.151Z,31.11
2023-03-15T01:07:16.282Z,31.09
2023-03-15T01:11:16.460Z,31.13
2023-03-15T01:15:16.561Z,31.10
2023-03-15T01:19:16.818Z,31.12
2023-03-15T01:23:16.991Z,31.10
2023-03-15T01:27:17.197Z,31.12
2023-03-15T01:31:17.388Z,31.11
2023-03-15T01:35:17.630Z,31.09
2023-03-15T01:39:17.788Z,31.11
2023-03-15T01:43:17.962Z,31.13
2023-03-15T01:47:18.146Z,31.11
2023-03-15T01:51:18.385Z,31.10
2023-03-15T01:55:18.555Z,31.11
2023-03-15T01:59:18.743Z,31.09
2023-03-15T02:03:18.917Z,31.13
2023-03-15T02:07:19.107Z,31.11
2023-03-15T02:11:19.226Z,31.12
2023-03-15T02:15:19.465Z,31.07
2023-03-15T02:19:19.599Z,31.10
2023-03-15T02:23:20.023Z,31.14
2023-03-15T02:27:20.022Z,31.16
2023-03-15T02:31:20.246Z,31.11
2023-03-15T02:35:20.445Z,31.13
2023-03-15T02:39:20.992Z,31.16
2023-03-15T02:43:20.873Z,31.14
2023-03-15T02:47:21.081Z,31.14
2023-03-15T02:51:21.243Z,31.15
2023-03-15T02:55:21.407Z,31.15
2023-03-15T02:59:21.363Z,31.15
2023-03-15T03:03:21.336Z,31.16
2023-03-15T03:07:21.308Z,31.17
2023-03-15T03:11:21.295Z,31.14
2023-03-15T03:15:21.261Z,31.14
2023-03-15T03:19:21.229Z,31.13
2023-03-15T03:23:21.155Z,31.15
2023-03-15T03:27:21.106Z,31.13
2023-03-15T03:31:21.166Z,31.13
2023-03-15T03:35:21.021Z,31.13
2023-03-15T03:39:21.152Z,31.12
2023-03-15T03:43:21.106Z,31.13
2023-03-15T03:47:21.098Z,31.14
2023-03-15T03:51:21.029Z,31.14
2023-03-15T03:55:21.017Z,31.15
2023-03-15T03:59:20.987Z,31.15
2023-03-15T04:03:20.937Z,31.15
2023-03-15T04:07:20.928Z,31.13
2023-03-15T04:11:20.865Z,31.14
2023-03-15T04:15:20.907Z,31.17
2023-03-15T04:19:20.769Z,31.16
2023-03-15T04:23:21.003Z,31.14
2023-03-15T04:27:20.921Z,31.16
2023-03-15T04:31:20.938Z,31.14
2023-03-15T04:35:20.877Z,31.14
2023-03-15T04:39:20.855Z,31.14
2023-03-15T04:43:20.781Z,31.19
2023-03-15T04:47:20.835Z,31.13
2023-03-15T04:51:20.735Z,31.20
2023-03-15T04:55:20.701Z,31.21
2023-03-15T04:59:20.693Z,31.20
2023-03-15T05:03:20.657Z,31.11
2023-03-15T05:07:20.737Z,30.83
2023-03-15T05:11:20.719Z,30.54
2023-03-15T05:15:20.698Z,30.34
2023-03-15T05:19:20.620Z,30.14
2023-03-15T05:27:34.633Z,29.75
2023-03-15T05:31:34.606Z,29.50
2023-03-15T05:35:34.597Z,29.64
2023-03-15T05:39:34.504Z,29.62
2023-03-15T05:43:34.466Z,29.61
2023-03-15T05:47:34.432Z,29.64
2023-03-15T05:51:34.375Z,29.71
2023-03-15T05:55:34.370Z,29.75
2023-03-15T05:59:34.305Z,29.79
2023-03-15T06:03:34.313Z,29.81
2023-03-15T06:07:34.441Z,29.82
2023-03-15T06:11:34.437Z,29.81
2023-03-15T06:15:34.394Z,29.78
2023-03-15T06:19:35.769Z,29.66
2023-03-15T06:23:34.583Z,29.67
2023-03-15T06:27:34.522Z,29.65
2023-03-15T06:31:34.485Z,29.59
2023-03-15T06:35:34.935Z,29.75
2023-03-15T06:39:34.963Z,29.23
2023-03-15T06:43:34.951Z,26.48
2023-03-15T06:47:34.540Z,28.13
2023-03-15T06:51:34.330Z,29.62
2023-03-15T06:55:34.383Z,29.89
2023-03-15T06:59:34.406Z,30.07
2023-03-15T07:03:34.422Z,30.22
2023-03-15T07:07:34.210Z,30.41
2023-03-15T07:11:34.372Z,30.47
2023-03-15T07:15:44.844Z,30.26
2023-03-15T07:19:35.795Z,30.44
2023-03-15T07:23:34.068Z,30.37
2023-03-15T07:27:33.988Z,30.33
2023-03-15T07:31:34.056Z,30.12
2023-03-15T07:35:33.946Z,29.99
2023-03-15T07:39:33.876Z,27.33
2023-03-15T07:43:33.838Z,28.20
2023-03-15T07:47:33.797Z,28.87
2023-03-15T07:51:33.925Z,28.90
2023-03-15T07:55:33.707Z,28.97
2023-03-15T07:59:33.677Z,28.85
2023-03-15T08:03:33.660Z,28.01
2023-03-15T08:07:33.638Z,28.59
2023-03-15T08:11:33.585Z,28.68
2023-03-15T08:15:33.698Z,28.73
2023-03-15T08:19:33.928Z,28.71
2023-03-15T08:23:34.426Z,28.67
2023-03-15T08:27:34.233Z,28.62
2023-03-15T08:31:34.411Z,28.17
2023-03-15T08:35:35.501Z,25.11
2023-03-15T08:39:34.583Z,27.25
2023-03-15T08:43:34.611Z,27.29
2023-03-15T08:47:34.782Z,27.18
2023-03-15T08:51:34.909Z,27.27
2023-03-15T08:55:34.995Z,27.26
2023-03-15T08:59:35.121Z,27.36
2023-03-15T09:03:35.147Z,27.34
2023-03-15T09:07:35.067Z,27.28
2023-03-15T09:11:35.005Z,27.29
2023-03-15T09:15:34.945Z,27.24
2023-03-15T09:19:34.914Z,27.14
2023-03-15T09:23:34.948Z,27.34
2023-03-15T09:27:34.880Z,22.61
2023-03-15T09:31:34.812Z,19.18
2023-03-15T09:35:35.060Z,18.68
2023-03-15T09:39:34.779Z,18.43
2023-03-15T09:43:34.963Z,18.62
2023-03-15T09:47:34.655Z,21.44
2023-03-15T09:51:34.652Z,22.39
2023-03-15T09:55:34.626Z,23.06
2023-03-15T09:59:34.558Z,23.77
2023-03-15T10:03:35.023Z,23.70
2023-03-15T10:07:34.987Z,23.91
2023-03-15T10:11:34.793Z,24.14
2023-03-15T10:15:34.953Z,24.31
2023-03-15T10:19:35.152Z,24.43
2023-03-15T10:23:35.149Z,24.79
2023-03-15T10:27:35.217Z,24.73
2023-03-15T10:31:44.193Z,24.90
2023-03-15T10:35:36.530Z,24.84
2023-03-15T10:39:35.278Z,25.11
2023-03-15T10:43:35.521Z,25.07
2023-03-15T10:47:35.689Z,25.16
2023-03-15T10:51:36.035Z,25.21
2023-03-15T10:55:35.819Z,25.18
2023-03-15T10:59:36.023Z,25.18
2023-03-15T11:03:36.056Z,25.11
2023-03-15T11:07:35.729Z,25.00
2023-03-15T11:11:35.737Z,25.06
2023-03-15T11:15:35.732Z,24.84
2023-03-15T11:19:35.658Z,24.84
2023-03-15T11:23:35.590Z,24.78
2023-03-15T11:27:36.552Z,24.20
2023-03-15T11:31:35.613Z,23.59
2023-03-15T11:35:35.491Z,23.03
2023-03-15T11:39:35.430Z,22.79
2023-03-15T11:43:35.401Z,22.67
2023-03-15T11:47:35.545Z,22.60
2023-03-15T11:51:35.516Z,22.76
2023-03-15T11:55:35.562Z,22.94
2023-03-15T11:59:35.653Z,23.52
2023-03-15T12:03:36.093Z,23.21
2023-03-15T12:07:35.628Z,23.39
2023-03-15T12:11:35.605Z,23.44
2023-03-15T12:15:35.696Z,23.67
2023-03-15T12:19:36.012Z,20.34
2023-03-15T12:23:35.783Z,18.80
2023-03-15T12:27:35.992Z,18.32
2023-03-15T12:31:36.175Z,19.81
2023-03-15T12:35:36.261Z,20.44
2023-03-15T12:39:36.266Z,20.54
2023-03-15T12:43:36.385Z,20.62
2023-03-15T12:47:36.356Z,20.88
2023-03-15T12:51:36.269Z,20.96
2023-03-15T12:55:36.276Z,21.15
2023-03-15T12:59:36.230Z,21.21
2023-03-15T13:03:36.608Z,21.48
2023-03-15T13:07:50.278Z,22.68
2023-03-15T13:11:37.142Z,23.58
2023-03-15T13:15:36.174Z,23.70
2023-03-15T13:19:36.043Z,24.07
2023-03-15T13:23:36.011Z,24.06
2023-03-15T13:27:36.012Z,24.18
2023-03-15T13:31:36.026Z,24.42
2023-03-15T13:35:35.930Z,24.36
2023-03-15T13:39:35.994Z,24.42
2023-03-15T13:43:36.558Z,24.66
2023-03-15T13:47:36.350Z,24.58
2023-03-15T13:51:36.339Z,24.53
2023-03-15T13:55:36.218Z,24.46
2023-03-15T13:59:36.535Z,22.94
2023-03-15T14:03:36.172Z,22.86
2023-03-15T14:07:36.153Z,23.26
2023-03-15T14:11:36.572Z,23.54
2023-03-15T14:15:36.042Z,23.68
2023-03-15T14:19:36.042Z,23.65
2023-03-15T14:23:36.011Z,23.80
2023-03-15T14:27:35.928Z,23.90
2023-03-15T14:31:35.914Z,23.87
2023-03-15T14:35:35.922Z,23.75
2023-03-15T14:39:35.848Z,23.93
2023-03-15T14:43:35.765Z,23.96
2023-03-15T14:47:42.742Z,24.09
2023-03-15T14:51:36.781Z,23.92
2023-03-15T14:55:35.695Z,24.12
2023-03-15T14:59:35.672Z,24.13
2023-03-15T15:03:35.606Z,24.05
2023-03-15T15:07:35.550Z,23.87
2023-03-15T15:11:35.624Z,23.79
2023-03-15T15:15:51.764Z,23.69
2023-03-15T15:19:36.652Z,23.62
2023-03-15T15:23:41.880Z,23.64
2023-03-15T15:27:36.601Z,23.46
2023-03-15T15:31:35.577Z,23.22
2023-03-15T15:35:35.524Z,23.13
2023-03-15T15:39:35.446Z,22.96
2023-03-15T15:43:35.478Z,22.80
2023-03-15T15:47:35.575Z,22.64
2023-03-15T15:51:35.773Z,22.63
2023-03-15T15:55:35.964Z,22.44
2023-03-15T15:59:35.995Z,22.33
2023-03-15T16:03:35.933Z,22.45
2023-03-15T16:07:35.884Z,22.57
2023-03-15T16:11:35.852Z,22.69
2023-03-15T16:15:35.846Z,22.74
2023-03-15T16:19:35.758Z,22.80
2023-03-15T16:23:35.749Z,22.82
2023-03-15T16:27:35.701Z,22.85
2023-03-15T16:31:35.746Z,22.87
2023-03-15T16:35:35.753Z,22.92
2023-03-15T16:39:35.755Z,23.05
2023-03-15T16:43:35.718Z,23.06
2023-03-15T16:47:35.714Z,23.16
2023-03-15T16:51:35.697Z,23.22
2023-03-15T16:55:35.595Z,23.21
2023-03-15T16:59:35.564Z,23.27
2023-03-15T17:03:35.520Z,23.35
2023-03-15T17:07:35.463Z,23.45
2023-03-15T17:11:35.472Z,23.52
2023-03-15T17:15:35.428Z,23.56
2023-03-15T17:19:35.377Z,23.60
2023-03-15T17:23:35.331Z,23.66
2023-03-15T17:27:35.325Z,23.74
2023-03-15T17:31:35.331Z,23.74
2023-03-15T17:35:35.288Z,23.84
2023-03-15T17:39:35.223Z,23.86
2023-03-15T17:43:35.172Z,23.87
2023-03-15T17:47:35.102Z,23.93
2023-03-15T17:51:35.100Z,23.92
2023-03-15T17:55:35.261Z,23.96
2023-03-15T17:59:35.055Z,23.99
2023-03-15T18:03:35.025Z,24.04
2023-03-15T18:07:34.977Z,24.07
2023-03-15T18:11:35.001Z,24.20
2023-03-15T18:15:35.120Z,24.18
2023-03-15T18:19:35.247Z,24.12
2023-03-15T18:23:35.340Z,24.15
2023-03-15T18:27:35.526Z,24.18
2023-03-15T18:31:35.696Z,24.30
2023-03-15T18:35:35.807Z,24.27
2023-03-15T18:39:35.893Z,24.30
2023-03-15T18:43:36.028Z,24.31
2023-03-15T18:47:36.153Z,24.46
2023-03-15T18:51:36.312Z,24.58
2023-03-15T18:55:36.452Z,24.69
2023-03-15T18:59:36.565Z,24.76
2023-03-15T19:03:36.697Z,24.81
2023-03-15T19:07:36.758Z,24.79
2023-03-15T19:11:36.870Z,24.76
2023-03-15T19:15:37.014Z,24.78
2023-03-15T19:19:37.153Z,24.82
2023-03-15T19:23:37.322Z,24.87
2023-03-15T19:27:37.515Z,24.90
2023-03-15T19:31:37.675Z,24.92
2023-03-15T19:35:37.903Z,24.94
2023-03-15T19:39:38.037Z,24.98
2023-03-15T19:43:38.234Z,24.99
2023-03-15T19:47:38.418Z,25.25
2023-03-15T19:51:38.589Z,25.32
2023-03-15T19:55:38.793Z,25.35
2023-03-15T19:59:38.949Z,25.41
2023-03-15T20:03:39.222Z,25.46
2023-03-15T20:07:39.316Z,25.49
2023-03-15T20:11:39.488Z,25.55
2023-03-15T20:15:39.748Z,25.58
2023-03-15T20:19:39.919Z,25.63
2023-03-15T20:23:40.102Z,25.67
2023-03-15T20:27:40.317Z,25.71
2023-03-15T20:31:40.557Z,25.73
2023-03-15T20:35:40.697Z,25.75
2023-03-15T20:39:40.917Z,25.78
2023-03-15T20:43:41.166Z,25.80
2023-03-15T20:47:41.396Z,25.86
2023-03-15T20:51:41.300Z,25.87
2023-03-15T20:55:41.291Z,25.92
2023-03-15T20:59:42.191Z,25.94
2023-03-15T21:03:41.250Z,25.97
2023-03-15T21:07:41.159Z,26.00
2023-03-15T21:11:41.097Z,26.04
2023-03-15T21:15:41.053Z,26.06
2023-03-15T21:19:40.999Z,26.06
2023-03-15T21:23:41.176Z,26.10
2023-03-15T21:27:41.112Z,26.12
2023-03-15T21:31:41.190Z,26.14
2023-03-15T21:35:41.167Z,26.17
2023-03-15T21:39:40.991Z,26.17
2023-03-15T21:43:40.957Z,26.20
2023-03-15T21:47:40.961Z,26.21
2023-03-15T21:51:40.881Z,26.25
2023-03-15T21:55:40.863Z,26.26
2023-03-15T21:59:40.821Z,26.26
2023-03-15T22:03:40.809Z,26.32
2023-03-15T22:07:40.992Z,26.32
2023-03-15T22:11:41.116Z,26.32
2023-03-15T22:15:41.306Z,26.33
2023-03-15T22:19:41.462Z,26.37
2023-03-15T22:23:41.609Z,26.36
2023-03-15T22:27:41.714Z,26.40
2023-03-15T22:31:41.825Z,26.41
2023-03-15T22:35:42.048Z,26.42
2023-03-15T22:39:42.094Z,26.46
2023-03-15T22:43:42.262Z,26.46
2023-03-15T22:47:42.413Z,26.47
2023-03-15T22:51:42.628Z,26.49
2023-03-15T22:55:42.800Z,26.53
2023-03-15T22:59:42.990Z,26.51
2023-03-15T23:03:43.175Z,26.55
2023-03-15T23:07:43.369Z,26.57
2023-03-15T23:11:43.478Z,26.58
2023-03-15T23:15:43.702Z,26.56
2023-03-15T23:19:43.712Z,26.60
2023-03-15T23:23:43.833Z,26.61
2023-03-15T23:27:43.908Z,26.63
2023-03-15T23:31:44.255Z,26.63
2023-03-15T23:35:44.350Z,26.64
2023-03-15T23:39:44.447Z,26.66
2023-03-15T23:43:44.573Z,26.69
2023-03-15T23:47:44.619Z,26.68
2023-03-15T23:51:44.578Z,26.72
2023-03-15T23:55:44.659Z,26.74
2023-03-15T23:59:44.684Z,26.73
